createdAt,value
2023-05-15T00:00:28.931Z,6.47
2023-05-15T00:01:30.752Z,4.20
2023-05-15T00:02:34.702Z,4.20
2023-05-15T00:03:36.286Z,4.10
2023-05-15T00:04:37.714Z,4.63
2023-05-15T00:05:39.346Z,5.13
2023-05-15T00:06:40.700Z,6.07
2023-05-15T00:07:42.086Z,5.63
2023-05-15T00:08:44.289Z,5.13
2023-05-15T00:09:45.666Z,5.33
2023-05-15T00:10:54.118Z,4.20
2023-05-15T00:12:02.949Z,7.17
2023-05-15T00:13:04.238Z,4.67
2023-05-15T00:14:05.610Z,4.27
2023-05-15T00:15:07.301Z,3.90
2023-05-15T00:16:09.242Z,6.17
2023-05-15T00:17:10.830Z,4.57
2023-05-15T00:18:12.210Z,5.63
2023-05-15T00:19:13.664Z,3.87
2023-05-15T00:20:15.523Z,5.93
2023-05-15T00:21:17.108Z,4.07
2023-05-15T00:22:18.446Z,4.13
2023-05-15T00:23:19.810Z,5.03
2023-05-15T00:24:21.771Z,3.93
2023-05-15T00:25:23.434Z,5.60
2023-05-15T00:26:25.073Z,5.20
2023-05-15T00:27:26.617Z,3.73
2023-05-15T00:28:27.984Z,4.53
2023-05-15T00:29:30.733Z,4.27
2023-05-15T00:30:32.050Z,4.40
2023-05-15T00:31:34.492Z,5.57
2023-05-15T00:32:35.932Z,4.00
2023-05-15T00:33:37.306Z,6.07
2023-05-15T00:34:38.610Z,4.93
2023-05-15T00:35:39.936Z,4.10
2023-05-15T00:36:41.251Z,4.03
2023-05-15T00:37:42.625Z,4.33
2023-05-15T00:38:45.536Z,4.07
2023-05-15T00:39:46.873Z,4.07
2023-05-15T00:40:51.135Z,4.20
2023-05-15T00:41:54.902Z,4.17
2023-05-15T00:42:56.797Z,7.07
2023-05-15T00:44:00.432Z,5.20
2023-05-15T00:45:02.149Z,6.60
2023-05-15T00:46:04.083Z,4.00
2023-05-15T00:47:05.664Z,4.07
2023-05-15T00:48:09.112Z,5.30
2023-05-15T00:49:13.493Z,4.57
2023-05-15T00:50:14.921Z,4.00
2023-05-15T00:51:16.612Z,4.10
2023-05-15T00:52:18.270Z,4.37
2023-05-15T00:53:19.628Z,5.60
2023-05-15T00:54:21.057Z,4.70
2023-05-15T00:55:22.954Z,4.33
2023-05-15T00:56:25.394Z,3.83
2023-05-15T00:57:27.328Z,4.17
2023-05-15T00:58:29.309Z,4.13
2023-05-15T00:59:31.620Z,4.63
2023-05-15T01:00:33.400Z,4.27
2023-05-15T01:01:35.088Z,4.07
2023-05-15T01:02:37.759Z,5.10
2023-05-15T01:03:39.796Z,3.83
2023-05-15T01:04:41.395Z,4.77
2023-05-15T01:05:43.059Z,4.20
2023-05-15T01:06:44.379Z,4.73
2023-05-15T01:07:50.054Z,5.17
2023-05-15T01:08:53.507Z,4.57
2023-05-15T01:09:55.878Z,4.30
2023-05-15T01:10:58.237Z,4.77
2023-05-15T01:12:00.630Z,4.53
2023-05-15T01:13:02.438Z,4.03
2023-05-15T01:14:05.488Z,5.67
2023-05-15T01:15:06.961Z,5.10
2023-05-15T01:16:11.485Z,4.33
2023-05-15T01:17:12.969Z,4.83
2023-05-15T01:18:14.602Z,3.73
2023-05-15T01:19:16.174Z,4.10
2023-05-15T01:20:18.721Z,4.20
2023-05-15T01:21:30.809Z,4.20
2023-05-15T01:22:44.565Z,5.13
2023-05-15T01:24:03.969Z,4.30
2023-05-15T01:25:20.295Z,5.23
2023-05-15T01:26:27.165Z,4.30
2023-05-15T01:27:28.447Z,7.03
2023-05-15T01:28:37.769Z,4.97
2023-05-15T01:29:44.987Z,4.30
2023-05-15T01:30:47.767Z,4.30
2023-05-15T01:31:50.849Z,4.30
2023-05-15T01:33:12.032Z,4.40
2023-05-15T01:34:14.827Z,6.60
2023-05-15T01:35:18.708Z,5.47
2023-05-15T01:36:24.223Z,4.57
2023-05-15T01:37:27.668Z,4.00
2023-05-15T01:38:39.979Z,4.73
2023-05-15T01:39:42.453Z,6.00
2023-05-15T01:40:44.805Z,6.47
2023-05-15T01:41:51.108Z,5.00
2023-05-15T01:42:56.204Z,5.97
2023-05-15T01:44:17.825Z,4.30
2023-05-15T01:45:21.079Z,4.50
2023-05-15T01:46:23.681Z,3.87
2023-05-15T01:47:27.851Z,4.97
2023-05-15T01:48:30.358Z,4.40
2023-05-15T01:49:32.410Z,5.33
2023-05-15T01:50:34.941Z,6.23
2023-05-15T01:51:36.832Z,4.43
2023-05-15T01:52:39.868Z,3.90
2023-05-15T01:53:42.393Z,4.50
2023-05-15T01:54:44.502Z,4.13
2023-05-15T01:55:47.581Z,6.23
2023-05-15T01:56:49.260Z,4.40
2023-05-15T01:57:52.862Z,4.73
2023-05-15T01:58:55.303Z,5.17
2023-05-15T01:59:57.762Z,5.07
2023-05-15T02:00:59.849Z,4.97
2023-05-15T02:02:02.154Z,6.33
2023-05-15T02:03:05.855Z,6.47
2023-05-15T02:04:08.404Z,5.07
2023-05-15T02:05:09.910Z,6.10
2023-05-15T02:06:11.866Z,4.67
2023-05-15T02:07:13.743Z,5.00
2023-05-15T02:08:15.698Z,5.13
2023-05-15T02:09:18.157Z,4.33
2023-05-15T02:10:19.936Z,6.67
2023-05-15T02:11:21.815Z,4.20
2023-05-15T02:12:23.220Z,4.73
2023-05-15T02:13:25.293Z,5.33
2023-05-15T02:14:28.154Z,6.10
2023-05-15T02:15:30.040Z,5.10
2023-05-15T02:16:31.419Z,3.80
2023-05-15T02:17:32.898Z,4.80
2023-05-15T02:18:34.303Z,4.63
2023-05-15T02:19:35.744Z,4.60
2023-05-15T02:20:37.437Z,4.73
2023-05-15T02:21:38.803Z,4.47
2023-05-15T02:22:41.114Z,4.67
2023-05-15T02:23:42.532Z,4.27
2023-05-15T02:24:44.015Z,4.73
2023-05-15T02:25:50.030Z,4.73
2023-05-15T02:27:09.928Z,4.30
2023-05-15T02:28:17.433Z,4.63
2023-05-15T02:29:21.196Z,4.90
2023-05-15T02:30:34.387Z,5.37
2023-05-15T02:31:38.063Z,5.03
2023-05-15T02:32:39.532Z,5.00
2023-05-15T02:33:46.944Z,4.43
2023-05-15T02:35:08.601Z,4.87
2023-05-15T02:36:11.237Z,4.70
2023-05-15T02:37:14.138Z,7.40
2023-05-15T02:38:17.288Z,5.13
2023-05-15T02:39:20.223Z,4.30
2023-05-15T02:40:23.310Z,6.53
2023-05-15T02:41:24.827Z,4.83
2023-05-15T02:42:29.487Z,5.50
2023-05-15T02:43:31.089Z,5.60
2023-05-15T02:44:33.370Z,4.53
2023-05-15T02:45:35.205Z,5.13
2023-05-15T02:46:37.122Z,5.13
2023-05-15T02:47:39.706Z,4.60
2023-05-15T02:48:41.566Z,5.50
2023-05-15T02:49:43.027Z,5.83
2023-05-15T02:50:44.498Z,4.47
2023-05-15T02:51:45.880Z,5.27
2023-05-15T02:52:47.291Z,5.13
2023-05-15T02:53:48.958Z,5.00
2023-05-15T02:54:50.564Z,6.30
2023-05-15T02:55:52.064Z,4.70
2023-05-15T02:56:53.449Z,5.37
2023-05-15T02:57:54.724Z,4.83
2023-05-15T02:58:56.316Z,4.50
2023-05-15T02:59:57.710Z,4.93
2023-05-15T03:00:59.066Z,4.60
2023-05-15T03:02:00.464Z,4.80
2023-05-15T03:03:01.820Z,4.70
2023-05-15T03:04:03.363Z,4.60
2023-05-15T03:05:06.519Z,4.30
2023-05-15T03:06:07.912Z,5.03
2023-05-15T03:07:09.303Z,5.10
2023-05-15T03:08:10.685Z,5.00
2023-05-15T03:09:12.071Z,5.60
2023-05-15T03:10:13.473Z,6.10
2023-05-15T03:11:14.848Z,5.00
2023-05-15T03:12:16.410Z,4.50
2023-05-15T03:13:17.821Z,5.93
2023-05-15T03:14:19.338Z,4.63
2023-05-15T03:15:21.171Z,4.80
2023-05-15T03:16:22.565Z,4.57
2023-05-15T03:17:23.913Z,5.63
2023-05-15T03:18:25.375Z,5.27
2023-05-15T03:19:26.697Z,6.00
2023-05-15T03:20:28.134Z,4.87
2023-05-15T03:21:29.477Z,4.70
2023-05-15T03:22:30.965Z,5.60
2023-05-15T03:23:32.336Z,6.93
2023-05-15T03:24:33.680Z,7.03
2023-05-15T03:25:35.072Z,4.70
2023-05-15T03:26:36.494Z,4.70
2023-05-15T03:27:37.984Z,5.03
2023-05-15T03:28:41.043Z,7.83
2023-05-15T03:29:43.532Z,5.00
2023-05-15T03:30:45.373Z,5.00
2023-05-15T03:31:46.712Z,6.30
2023-05-15T03:32:48.789Z,6.00
2023-05-15T03:33:51.434Z,5.37
2023-05-15T03:34:52.828Z,5.17
2023-05-15T03:35:54.151Z,5.77
2023-05-15T03:36:56.078Z,6.40
2023-05-15T03:37:57.518Z,5.40
2023-05-15T03:38:58.892Z,5.63
2023-05-15T03:40:01.380Z,6.83
2023-05-15T03:41:02.775Z,5.60
2023-05-15T03:42:07.274Z,5.77
2023-05-15T03:43:08.593Z,7.20
2023-05-15T03:44:09.925Z,5.27
2023-05-15T03:45:11.266Z,5.70
2023-05-15T03:46:15.445Z,6.07
2023-05-15T03:47:17.220Z,5.40
2023-05-15T03:48:18.553Z,6.53
2023-05-15T03:49:19.841Z,5.27
2023-05-15T03:50:21.196Z,4.90
2023-05-15T03:51:22.567Z,6.03
2023-05-15T03:52:24.018Z,9.00
2023-05-15T03:53:25.408Z,5.30
2023-05-15T03:54:27.471Z,5.07
2023-05-15T03:55:28.889Z,5.17
2023-05-15T03:56:30.837Z,6.27
2023-05-15T03:57:33.193Z,6.37
2023-05-15T03:58:34.615Z,6.43
2023-05-15T03:59:35.937Z,5.40
2023-05-15T04:00:37.248Z,7.73
2023-05-15T04:01:50.399Z,5.60
2023-05-15T04:02:57.114Z,5.40
2023-05-15T04:03:58.480Z,5.73
2023-05-15T04:04:59.885Z,5.67
2023-05-15T04:06:01.212Z,6.73
2023-05-15T04:07:02.549Z,5.53
2023-05-15T04:08:03.953Z,5.70
2023-05-15T04:09:05.353Z,6.17
2023-05-15T04:10:06.970Z,6.60
2023-05-15T04:11:08.427Z,5.80
2023-05-15T04:12:09.739Z,5.80
2023-05-15T04:13:11.044Z,5.40
2023-05-15T04:14:12.537Z,5.77
2023-05-15T04:15:24.431Z,6.67
2023-05-15T04:16:26.087Z,6.50
2023-05-15T04:17:27.510Z,6.57
2023-05-15T04:18:28.853Z,5.73
2023-05-15T04:19:30.306Z,6.97
2023-05-15T04:20:32.098Z,7.37
2023-05-15T04:21:33.406Z,5.77
2023-05-15T04:22:34.675Z,9.23
2023-05-15T04:23:35.993Z,6.00
2023-05-15T04:24:37.485Z,5.33
2023-05-15T04:25:38.895Z,6.40
2023-05-15T04:26:40.210Z,6.50
2023-05-15T04:27:44.145Z,6.27
2023-05-15T04:28:56.271Z,6.13
2023-05-15T04:30:05.450Z,7.63
2023-05-15T04:31:09.602Z,6.73
2023-05-15T04:32:12.735Z,6.50
2023-05-15T04:33:14.226Z,8.47
2023-05-15T04:34:15.898Z,6.13
2023-05-15T04:35:17.820Z,6.50
2023-05-15T04:36:19.160Z,6.60
2023-05-15T04:37:20.519Z,6.43
2023-05-15T04:38:21.809Z,7.93
2023-05-15T04:39:23.169Z,6.10
2023-05-15T04:40:24.549Z,7.77
2023-05-15T04:41:26.622Z,6.33
2023-05-15T04:42:28.796Z,8.47
2023-05-15T04:43:30.274Z,6.93
2023-05-15T04:44:32.048Z,10.30
2023-05-15T04:45:33.378Z,7.13
2023-05-15T04:46:37.185Z,7.07
2023-05-15T04:47:38.681Z,7.23
2023-05-15T04:48:39.969Z,6.90
2023-05-15T04:49:41.780Z,6.17
2023-05-15T04:50:43.043Z,6.23
2023-05-15T04:51:44.426Z,6.37
2023-05-15T04:52:45.730Z,6.60
2023-05-15T04:53:47.060Z,6.57
2023-05-15T04:54:50.847Z,6.20
2023-05-15T04:55:52.216Z,6.17
2023-05-15T04:56:53.662Z,7.50
2023-05-15T04:57:54.948Z,6.67
2023-05-15T04:58:56.249Z,7.90
2023-05-15T04:59:58.105Z,7.43
2023-05-15T05:01:02.769Z,6.93
2023-05-15T05:02:05.218Z,7.67
2023-05-15T05:03:06.728Z,6.10
2023-05-15T05:04:08.293Z,6.57
2023-05-15T05:05:09.981Z,7.97
2023-05-15T05:06:11.349Z,6.00
2023-05-15T05:07:12.683Z,6.80
2023-05-15T05:08:13.976Z,9.40
2023-05-15T05:09:15.500Z,6.87
2023-05-15T05:10:16.833Z,6.97
2023-05-15T05:11:18.154Z,7.93
2023-05-15T05:12:19.515Z,8.37
2023-05-15T05:13:20.841Z,9.40
2023-05-15T05:14:22.242Z,8.17
2023-05-15T05:15:23.761Z,6.77
2023-05-15T05:16:25.431Z,6.77
2023-05-15T05:17:26.792Z,6.63
2023-05-15T05:18:28.213Z,7.03
2023-05-15T05:19:29.732Z,6.97
2023-05-15T05:20:31.056Z,6.60
2023-05-15T05:21:32.686Z,6.83
2023-05-15T05:22:33.981Z,7.57
2023-05-15T05:23:35.379Z,7.40
2023-05-15T05:24:37.519Z,5.77
2023-05-15T05:25:38.898Z,6.50
2023-05-15T05:26:43.007Z,9.20
2023-05-15T05:27:44.371Z,6.23
2023-05-15T05:28:45.755Z,6.80
2023-05-15T05:29:47.115Z,6.00
2023-05-15T05:30:48.744Z,5.90
2023-05-15T05:31:50.115Z,6.03
2023-05-15T05:32:51.581Z,6.63
2023-05-15T05:33:52.947Z,5.97
2023-05-15T05:34:54.323Z,6.63
2023-05-15T05:35:55.814Z,7.00
2023-05-15T05:36:57.112Z,5.97
2023-05-15T05:37:58.502Z,5.40
2023-05-15T05:38:59.794Z,6.23
2023-05-15T05:40:01.142Z,6.17
2023-05-15T05:41:03.392Z,6.77
2023-05-15T05:42:04.894Z,5.90
2023-05-15T05:43:08.894Z,6.63
2023-05-15T05:44:10.292Z,8.00
2023-05-15T05:45:11.720Z,7.23
2023-05-15T05:46:13.195Z,7.60
2023-05-15T05:47:14.654Z,6.63
2023-05-15T05:48:16.100Z,8.17
2023-05-15T05:49:17.520Z,7.00
2023-05-15T05:50:19.018Z,6.57
2023-05-15T05:51:20.617Z,6.77
2023-05-15T05:52:21.983Z,5.90
2023-05-15T05:53:23.304Z,6.22
2023-05-15T05:54:24.672Z,7.10
2023-05-15T05:55:26.588Z,6.00
2023-05-15T05:56:28.149Z,5.93
2023-05-15T05:57:29.474Z,8.35
2023-05-15T05:58:30.993Z,6.47
2023-05-15T05:59:32.309Z,5.72
2023-05-15T06:00:33.615Z,5.63
2023-05-15T06:01:34.973Z,5.57
2023-05-15T06:02:37.149Z,7.65
2023-05-15T06:03:39.095Z,7.32
2023-05-15T06:04:41.057Z,5.45
2023-05-15T06:05:42.464Z,8.15
2023-05-15T06:06:43.792Z,5.93
2023-05-15T06:07:45.102Z,6.20
2023-05-15T06:08:46.731Z,6.10
2023-05-15T06:09:48.703Z,6.07
2023-05-15T06:10:50.032Z,5.97
2023-05-15T06:11:51.326Z,6.03
2023-05-15T06:12:52.651Z,5.85
2023-05-15T06:13:54.048Z,6.40
2023-05-15T06:14:55.372Z,7.20
2023-05-15T06:15:56.664Z,7.30
2023-05-15T06:16:58.026Z,7.53
2023-05-15T06:17:59.365Z,5.65
2023-05-15T06:19:01.038Z,9.02
2023-05-15T06:20:02.770Z,7.97
2023-05-15T06:21:04.128Z,6.20
2023-05-15T06:22:05.704Z,5.80
2023-05-15T06:23:07.007Z,6.65
2023-05-15T06:24:08.362Z,8.02
2023-05-15T06:25:13.753Z,5.30
2023-05-15T06:26:15.098Z,6.05
2023-05-15T06:27:16.387Z,6.15
2023-05-15T06:28:17.721Z,5.95
2023-05-15T06:29:19.227Z,5.75
2023-05-15T06:30:20.684Z,6.32
2023-05-15T06:31:22.115Z,7.00
2023-05-15T06:32:23.636Z,5.70
2023-05-15T06:33:25.103Z,6.50
2023-05-15T06:34:26.431Z,6.15
2023-05-15T06:35:27.841Z,5.65
2023-05-15T06:36:30.001Z,8.85
2023-05-15T06:37:31.403Z,7.88
2023-05-15T06:38:32.772Z,8.63
2023-05-15T06:39:34.089Z,6.20
2023-05-15T06:40:35.431Z,8.57
2023-05-15T06:41:37.510Z,6.95
2023-05-15T06:42:38.865Z,6.63
2023-05-15T06:43:40.272Z,6.72
2023-05-15T06:44:41.831Z,6.60
2023-05-15T06:45:43.245Z,8.90
2023-05-15T06:46:44.660Z,6.85
2023-05-15T06:47:46.142Z,7.15
2023-05-15T06:48:48.130Z,6.90
2023-05-15T06:49:49.519Z,9.63
2023-05-15T06:50:51.413Z,8.25
2023-05-15T06:51:52.763Z,7.68
2023-05-15T06:52:56.821Z,7.22
2023-05-15T06:53:58.284Z,7.72
2023-05-15T06:54:59.655Z,7.40
2023-05-15T06:56:01.054Z,7.45
2023-05-15T06:57:02.371Z,6.95
2023-05-15T06:58:04.536Z,6.95
2023-05-15T06:59:05.956Z,7.18
2023-05-15T07:00:07.578Z,7.90
2023-05-15T07:01:09.425Z,7.82
2023-05-15T07:02:11.132Z,9.98
2023-05-15T07:03:14.477Z,7.60
2023-05-15T07:04:36.959Z,8.73
2023-05-15T07:05:42.518Z,7.15
2023-05-15T07:06:43.830Z,6.57
2023-05-15T07:07:45.960Z,7.10
2023-05-15T07:08:47.325Z,6.78
2023-05-15T07:09:50.240Z,7.05
2023-05-15T07:10:51.543Z,6.13
2023-05-15T07:11:52.848Z,6.72
2023-05-15T07:12:54.546Z,7.35
2023-05-15T07:13:55.938Z,6.32
2023-05-15T07:14:57.321Z,6.72
2023-05-15T07:15:58.614Z,6.80
2023-05-15T07:17:00.054Z,10.18
2023-05-15T07:18:01.670Z,7.63
2023-05-15T07:19:03.257Z,6.72
2023-05-15T07:20:06.067Z,8.10
2023-05-15T07:21:07.456Z,6.90
2023-05-15T07:22:08.786Z,7.00
2023-05-15T07:23:10.159Z,10.27
2023-05-15T07:24:11.529Z,7.30
2023-05-15T07:25:14.564Z,6.55
2023-05-15T07:26:20.039Z,7.00
2023-05-15T07:27:29.182Z,6.70
2023-05-15T07:28:30.547Z,7.93
2023-05-15T07:29:31.890Z,7.30
2023-05-15T07:30:33.206Z,7.53
2023-05-15T07:31:34.681Z,7.55
2023-05-15T07:32:36.141Z,7.35
2023-05-15T07:33:37.477Z,7.43
2023-05-15T07:34:38.985Z,6.32
2023-05-15T07:35:40.342Z,7.20
2023-05-15T07:36:41.693Z,7.38
2023-05-15T07:37:43.198Z,7.53
2023-05-15T07:38:44.521Z,6.15
2023-05-15T07:39:46.531Z,7.80
2023-05-15T07:40:47.888Z,6.68
2023-05-15T07:41:49.282Z,7.15
2023-05-15T07:42:50.620Z,7.93
2023-05-15T07:43:52.159Z,6.70
2023-05-15T07:44:53.575Z,7.10
2023-05-15T07:45:54.997Z,8.07
2023-05-15T07:46:56.929Z,9.60
2023-05-15T07:47:58.827Z,7.43
2023-05-15T07:49:00.509Z,7.68
2023-05-15T07:50:02.026Z,5.82
2023-05-15T07:51:03.469Z,9.15
2023-05-15T07:52:05.008Z,6.47
2023-05-15T07:53:06.326Z,6.68
2023-05-15T07:54:07.755Z,6.18
2023-05-15T07:55:12.472Z,5.82
2023-05-15T07:56:13.825Z,6.65
2023-05-15T07:57:15.469Z,4.90
2023-05-15T07:58:17.717Z,5.47
2023-05-15T07:59:19.033Z,5.65
2023-05-15T08:00:21.892Z,5.03
2023-05-15T08:01:23.228Z,5.57
2023-05-15T08:02:24.739Z,5.65
2023-05-15T08:03:26.301Z,5.70
2023-05-15T08:04:27.900Z,6.57
2023-05-15T08:05:29.833Z,5.03
2023-05-15T08:06:32.884Z,5.45
2023-05-15T08:07:34.648Z,5.95
2023-05-15T08:08:36.074Z,6.88
2023-05-15T08:09:37.429Z,4.90
2023-05-15T08:10:38.836Z,5.03
2023-05-15T08:11:40.554Z,6.13
2023-05-15T08:12:46.413Z,6.40
2023-05-15T08:13:47.889Z,6.60
2023-05-15T08:14:50.293Z,5.47
2023-05-15T08:15:51.876Z,6.10
2023-05-15T08:16:53.316Z,4.43
2023-05-15T08:17:54.809Z,4.65
2023-05-15T08:19:01.145Z,4.28
2023-05-15T08:20:02.757Z,4.55
2023-05-15T08:21:04.811Z,8.00
2023-05-15T08:22:06.318Z,4.18
2023-05-15T08:23:08.184Z,4.82
2023-05-15T08:24:09.648Z,5.28
2023-05-15T08:25:11.000Z,5.68
2023-05-15T08:26:12.301Z,4.55
2023-05-15T08:27:13.666Z,5.05
2023-05-15T08:28:15.050Z,5.60
2023-05-15T08:29:16.916Z,7.32
2023-05-15T08:30:18.294Z,5.63
2023-05-15T08:31:20.303Z,6.53
2023-05-15T08:32:21.807Z,4.72
2023-05-15T08:33:23.111Z,4.90
2023-05-15T08:34:24.911Z,6.43
2023-05-15T08:35:26.601Z,5.97
2023-05-15T08:36:28.298Z,5.00
2023-05-15T08:37:29.787Z,5.82
2023-05-15T08:38:31.659Z,5.40
2023-05-15T08:39:33.054Z,7.70
2023-05-15T08:40:39.078Z,9.05
2023-05-15T08:41:47.762Z,8.85
2023-05-15T08:42:50.501Z,7.43
2023-05-15T08:43:52.846Z,7.80
2023-05-15T08:44:55.701Z,5.55
2023-05-15T08:45:57.937Z,6.18
2023-05-15T08:46:59.650Z,8.55
2023-05-15T08:48:01.939Z,5.40
2023-05-15T08:49:07.017Z,6.00
2023-05-15T08:50:12.000Z,8.32
2023-05-15T08:51:14.129Z,6.82
2023-05-15T08:52:15.803Z,5.22
2023-05-15T08:53:17.760Z,5.85
2023-05-15T08:54:19.303Z,6.20
2023-05-15T08:55:21.534Z,6.35
2023-05-15T08:56:23.251Z,7.07
2023-05-15T08:57:24.549Z,9.02
2023-05-15T08:58:28.306Z,5.50
2023-05-15T08:59:29.774Z,5.88
2023-05-15T09:00:31.415Z,8.45
2023-05-15T09:01:33.944Z,9.18
2023-05-15T09:02:38.886Z,8.05
2023-05-15T09:03:40.412Z,11.57
2023-05-15T09:04:41.909Z,7.22
2023-05-15T09:05:43.657Z,11.00
2023-05-15T09:06:46.964Z,7.85
2023-05-15T09:07:49.115Z,8.77
2023-05-15T09:08:51.271Z,7.47
2023-05-15T09:09:53.370Z,6.82
2023-05-15T09:10:56.379Z,10.05
2023-05-15T09:11:59.393Z,8.25
2023-05-15T09:13:01.975Z,7.15
2023-05-15T09:14:04.599Z,8.40
2023-05-15T09:15:12.810Z,8.13
2023-05-15T09:16:14.164Z,6.57
2023-05-15T09:17:16.417Z,6.63
2023-05-15T09:18:17.986Z,8.35
2023-05-15T09:19:22.567Z,6.18
2023-05-15T09:20:24.876Z,9.27
2023-05-15T09:21:27.294Z,7.35
2023-05-15T09:22:33.325Z,7.07
2023-05-15T09:23:34.617Z,7.32
2023-05-15T09:24:37.885Z,7.18
2023-05-15T09:25:40.552Z,5.68
2023-05-15T09:26:42.272Z,6.93
2023-05-15T09:27:43.681Z,8.65
2023-05-15T09:28:45.244Z,8.15
2023-05-15T09:29:46.888Z,9.20
2023-05-15T09:30:48.298Z,9.48
2023-05-15T09:31:49.741Z,9.07
2023-05-15T09:32:52.408Z,7.15
2023-05-15T09:34:00.680Z,5.82
2023-05-15T09:35:02.051Z,6.05
2023-05-15T09:36:04.778Z,7.43
2023-05-15T09:37:07.083Z,6.63
2023-05-15T09:38:10.366Z,8.07
2023-05-15T09:39:12.073Z,6.88
2023-05-15T09:40:13.701Z,6.50
2023-05-15T09:41:15.028Z,8.15
2023-05-15T09:42:16.389Z,7.20
2023-05-15T09:43:17.728Z,7.70
2023-05-15T09:44:27.978Z,6.43
2023-05-15T09:45:30.486Z,7.50
2023-05-15T09:46:34.163Z,7.85
2023-05-15T09:47:36.115Z,8.32
2023-05-15T09:48:38.347Z,9.25
2023-05-15T09:49:40.268Z,9.20
2023-05-15T09:50:42.337Z,7.60
2023-05-15T09:51:44.358Z,6.00
2023-05-15T09:52:45.731Z,7.15
2023-05-15T09:53:51.496Z,7.72
2023-05-15T09:54:53.465Z,7.72
2023-05-15T09:55:55.143Z,8.10
2023-05-15T09:56:57.229Z,8.18
2023-05-15T09:58:08.637Z,12.30
2023-05-15T09:59:13.056Z,6.88
2023-05-15T10:00:14.669Z,12.23
2023-05-15T10:01:19.224Z,8.38
2023-05-15T10:02:34.583Z,7.68
2023-05-15T10:03:36.192Z,9.52
2023-05-15T10:04:38.383Z,9.20
2023-05-15T10:05:43.394Z,9.25
2023-05-15T10:06:48.653Z,9.93
2023-05-15T10:07:53.802Z,9.15
2023-05-15T10:08:55.321Z,9.07
2023-05-15T10:09:56.719Z,7.47
2023-05-15T10:11:00.646Z,10.80
2023-05-15T10:12:02.205Z,10.10
2023-05-15T10:13:05.692Z,9.32
2023-05-15T10:14:08.570Z,7.30
2023-05-15T10:15:10.851Z,8.25
2023-05-15T10:16:13.531Z,10.27
2023-05-15T10:17:14.953Z,9.18
2023-05-15T10:18:18.640Z,7.63
2023-05-15T10:19:22.535Z,7.38
2023-05-15T10:20:25.603Z,7.63
2023-05-15T10:21:27.417Z,10.48
2023-05-15T10:22:29.562Z,6.97
2023-05-15T10:23:31.394Z,7.20
2023-05-15T10:24:33.144Z,6.90
2023-05-15T10:25:53.393Z,7.13
2023-05-15T10:26:55.640Z,7.90
2023-05-15T10:27:57.897Z,7.38
2023-05-15T10:28:59.858Z,9.13
2023-05-15T10:30:02.781Z,8.77
2023-05-15T10:31:04.623Z,7.45
2023-05-15T10:32:06.063Z,8.32
2023-05-15T10:33:08.053Z,9.85
2023-05-15T10:34:10.057Z,11.25
2023-05-15T10:35:11.849Z,8.52
2023-05-15T10:36:14.440Z,10.00
2023-05-15T10:37:16.050Z,8.30
2023-05-15T10:38:19.075Z,7.43
2023-05-15T10:39:20.627Z,8.18
2023-05-15T10:40:22.293Z,12.95
2023-05-15T10:41:24.798Z,7.40
2023-05-15T10:42:26.477Z,8.38
2023-05-15T10:43:28.297Z,8.45
2023-05-15T10:44:29.600Z,8.85
2023-05-15T10:45:31.339Z,8.73
2023-05-15T10:46:34.755Z,7.10
2023-05-15T10:47:37.152Z,8.80
2023-05-15T10:48:38.999Z,7.68
2023-05-15T10:49:40.386Z,7.18
2023-05-15T10:50:41.835Z,7.55
2023-05-15T10:51:43.379Z,7.03
2023-05-15T10:52:44.867Z,7.85
2023-05-15T10:53:46.542Z,9.70
2023-05-15T10:54:47.996Z,8.10
2023-05-15T10:55:49.751Z,9.27
2023-05-15T10:56:52.435Z,9.60
2023-05-15T10:57:54.895Z,9.23
2023-05-15T10:58:56.325Z,8.55
2023-05-15T10:59:58.038Z,8.30
2023-05-15T11:00:59.427Z,10.88
2023-05-15T11:02:19.591Z,8.55
2023-05-15T11:03:48.131Z,8.75
2023-05-15T11:04:54.914Z,9.52
2023-05-15T11:06:12.661Z,6.82
2023-05-15T11:07:15.012Z,9.07
2023-05-15T11:08:18.372Z,8.23
2023-05-15T11:09:19.697Z,7.30
2023-05-15T11:10:29.946Z,10.20
2023-05-15T11:11:51.209Z,10.05
2023-05-15T11:12:55.898Z,10.65
2023-05-15T11:14:07.851Z,9.43
2023-05-15T11:15:09.155Z,12.20
2023-05-15T11:16:12.115Z,8.98
2023-05-15T11:17:17.721Z,11.52
2023-05-15T11:18:20.247Z,10.45
2023-05-15T11:19:25.377Z,12.48
2023-05-15T11:20:35.268Z,8.25
2023-05-15T11:21:44.883Z,10.95
2023-05-15T11:22:57.384Z,10.25
2023-05-15T11:24:05.242Z,9.57
2023-05-15T11:25:10.238Z,9.20
2023-05-15T11:26:13.077Z,8.15
2023-05-15T11:27:28.876Z,8.82
2023-05-15T11:28:31.532Z,8.43
2023-05-15T11:29:33.185Z,9.10
2023-05-15T11:30:38.730Z,10.25
2023-05-15T11:31:40.210Z,8.63
2023-05-15T11:32:48.002Z,12.45
2023-05-15T11:33:52.298Z,8.82
2023-05-15T11:34:59.425Z,6.50
2023-05-15T11:36:01.329Z,6.13
2023-05-15T11:37:02.728Z,9.57
2023-05-15T11:38:10.187Z,9.20
2023-05-15T11:39:11.835Z,8.95
2023-05-15T11:40:14.352Z,10.55
2023-05-15T11:41:20.181Z,9.98
2023-05-15T11:42:21.641Z,9.55
2023-05-15T11:43:27.306Z,10.10
2023-05-15T11:44:29.288Z,10.80
2023-05-15T11:45:31.535Z,9.95
2023-05-15T11:46:33.081Z,10.88
2023-05-15T11:47:34.522Z,12.88
2023-05-15T11:48:43.117Z,11.73
2023-05-15T11:49:44.732Z,10.70
2023-05-15T11:50:46.533Z,12.70
2023-05-15T11:51:48.789Z,10.38
2023-05-15T11:52:50.640Z,10.38
2023-05-15T11:53:53.055Z,9.70
2023-05-15T11:54:55.011Z,11.18
2023-05-15T11:55:56.389Z,11.10
2023-05-15T11:56:57.874Z,10.77
2023-05-15T11:57:59.714Z,10.82
2023-05-15T11:59:04.141Z,10.13
2023-05-15T12:00:06.698Z,11.00
2023-05-15T12:01:10.796Z,9.43
2023-05-15T12:02:12.416Z,10.25
2023-05-15T12:03:15.191Z,9.85
2023-05-15T12:04:18.157Z,9.23
2023-05-15T12:05:19.955Z,7.97
2023-05-15T12:06:21.505Z,8.15
2023-05-15T12:07:23.024Z,7.68
2023-05-15T12:08:24.744Z,7.40
2023-05-15T12:09:27.709Z,9.30
2023-05-15T12:10:29.952Z,5.78
2023-05-15T12:11:31.765Z,5.30
2023-05-15T12:12:35.292Z,9.73
2023-05-15T12:13:36.841Z,7.05
2023-05-15T12:14:39.505Z,5.50
2023-05-15T12:15:45.771Z,6.88
2023-05-15T12:16:47.091Z,5.75
2023-05-15T12:17:48.584Z,7.45
2023-05-15T12:18:50.337Z,4.50
2023-05-15T12:19:51.962Z,7.70
2023-05-15T12:20:53.684Z,6.88
2023-05-15T12:21:55.094Z,5.70
2023-05-15T12:22:58.691Z,5.20
2023-05-15T12:24:07.716Z,6.78
2023-05-15T12:25:11.324Z,5.35
2023-05-15T12:26:13.283Z,6.53
2023-05-15T12:27:14.827Z,5.45
2023-05-15T12:28:16.332Z,7.07
2023-05-15T12:29:17.849Z,6.88
2023-05-15T12:30:19.232Z,5.93
2023-05-15T12:31:20.760Z,5.32
2023-05-15T12:32:22.377Z,5.25
2023-05-15T12:33:23.791Z,5.38
2023-05-15T12:34:25.953Z,5.57
2023-05-15T12:35:27.318Z,7.63
2023-05-15T12:36:31.632Z,6.18
2023-05-15T12:37:33.747Z,7.20
2023-05-15T12:38:36.147Z,6.13
2023-05-15T12:39:48.990Z,7.07
2023-05-15T12:40:57.034Z,10.10
2023-05-15T12:41:58.646Z,6.93
2023-05-15T12:43:04.493Z,10.15
2023-05-15T12:44:06.193Z,7.05
2023-05-15T12:45:14.858Z,6.45
2023-05-15T12:46:16.199Z,7.47
2023-05-15T12:47:22.138Z,6.25
2023-05-15T12:48:23.799Z,7.18
2023-05-15T12:49:25.194Z,6.45
2023-05-15T12:50:33.435Z,5.25
2023-05-15T12:51:41.970Z,5.75
2023-05-15T12:52:53.281Z,7.25
2023-05-15T12:53:54.784Z,7.45
2023-05-15T12:54:59.678Z,5.80
2023-05-15T12:56:01.109Z,5.28
2023-05-15T12:57:02.430Z,7.43
2023-05-15T12:58:06.341Z,6.03
2023-05-15T12:59:07.713Z,6.03
2023-05-15T13:00:12.740Z,6.93
2023-05-15T13:01:15.131Z,6.70
2023-05-15T13:02:17.058Z,6.55
2023-05-15T13:03:20.444Z,7.05
2023-05-15T13:04:21.925Z,7.55
2023-05-15T13:05:23.902Z,7.47
2023-05-15T13:06:37.967Z,8.00
2023-05-15T13:07:47.469Z,7.28
2023-05-15T13:08:48.882Z,10.45
2023-05-15T13:10:02.069Z,9.73
2023-05-15T13:11:03.605Z,9.48
2023-05-15T13:12:04.954Z,8.25
2023-05-15T13:13:06.244Z,7.57
2023-05-15T13:14:17.606Z,10.88
2023-05-15T13:15:25.480Z,10.27
2023-05-15T13:16:29.452Z,7.75
2023-05-15T13:17:31.108Z,9.85
2023-05-15T13:18:32.490Z,8.75
2023-05-15T13:19:33.812Z,8.45
2023-05-15T13:20:39.263Z,10.40
2023-05-15T13:21:40.933Z,10.40
2023-05-15T13:22:42.251Z,10.27
2023-05-15T13:23:43.594Z,10.95
2023-05-15T13:24:47.785Z,9.32
2023-05-15T13:25:50.262Z,9.45
2023-05-15T13:26:52.526Z,8.32
2023-05-15T13:27:55.111Z,9.77
2023-05-15T13:28:56.434Z,11.50
2023-05-15T13:29:58.129Z,9.38
2023-05-15T13:30:59.475Z,10.02
2023-05-15T13:32:00.888Z,10.23
2023-05-15T13:33:02.617Z,10.52
2023-05-15T13:34:04.061Z,10.00
2023-05-15T13:35:05.626Z,8.88
2023-05-15T13:37:26.071Z,11.52
2023-05-15T13:38:27.392Z,10.40
2023-05-15T13:39:28.733Z,11.05
2023-05-15T13:40:32.524Z,12.00
2023-05-15T13:41:33.969Z,9.95
2023-05-15T13:42:39.025Z,9.88
2023-05-15T13:43:40.472Z,11.52
2023-05-15T13:44:41.832Z,11.13
2023-05-15T13:45:43.123Z,10.07
2023-05-15T13:46:44.662Z,10.48
2023-05-15T13:47:46.210Z,9.43
2023-05-15T13:48:47.544Z,9.20
2023-05-15T13:49:48.843Z,10.35
2023-05-15T13:50:50.289Z,12.15
2023-05-15T13:51:51.608Z,7.07
2023-05-15T13:52:54.440Z,6.88
2023-05-15T13:53:55.919Z,6.47
2023-05-15T13:54:57.333Z,6.38